createdAt,value
2023-04-28T00:01:35.328Z,9.60
2023-04-28T00:03:35.426Z,9.80
2023-04-28T00:05:35.327Z,9.80
2023-04-28T00:07:35.397Z,9.80
2023-04-28T00:09:35.497Z,9.80
2023-04-28T00:11:38.565Z,9.80
2023-04-28T00:13:35.458Z,9.80
2023-04-28T00:15:35.361Z,9.90
2023-04-28T00:17:35.522Z,9.90
2023-04-28T00:19:35.354Z,9.90
2023-04-28T00:21:35.487Z,10.00
2023-04-28T00:23:37.059Z,10.00
2023-04-28T00:25:35.365Z,10.00
2023-04-28T00:27:35.356Z,10.00
2023-04-28T00:29:35.399Z,10.00
2023-04-28T00:31:35.461Z,10.00
2023-04-28T00:33:35.580Z,10.00
2023-04-28T00:35:35.357Z,10.00
2023-04-28T00:37:35.345Z,10.00
2023-04-28T00:39:35.402Z,10.40
2023-04-28T00:41:35.403Z,10.40
2023-04-28T00:43:35.584Z,10.40
2023-04-28T00:45:35.364Z,10.50
2023-04-28T00:47:35.554Z,10.50
2023-04-28T00:49:35.544Z,10.60
2023-04-28T00:51:35.358Z,10.60
2023-04-28T00:53:35.369Z,10.70
2023-04-28T00:55:35.374Z,10.80
2023-04-28T00:57:35.363Z,10.80
2023-04-28T00:59:35.378Z,10.80
2023-04-28T01:01:35.376Z,10.80
2023-04-28T01:03:35.453Z,10.70
2023-04-28T01:05:35.452Z,10.70
2023-04-28T01:07:35.592Z,10.70
2023-04-28T01:09:36.502Z,10.70
2023-04-28T01:11:35.369Z,10.60
2023-04-28T01:13:38.263Z,10.60
2023-04-28T01:15:35.366Z,10.60
2023-04-28T01:17:35.454Z,10.60
2023-04-28T01:19:35.517Z,10.60
2023-04-28T01:21:35.470Z,10.60
2023-04-28T01:23:35.458Z,10.60
2023-04-28T01:25:35.424Z,10.60
2023-04-28T01:27:35.448Z,10.70
2023-04-28T01:30:35.839Z,10.80
2023-04-28T01:32:35.368Z,10.80
2023-04-28T01:34:35.425Z,10.80
2023-04-28T01:36:37.537Z,10.70
2023-04-28T01:38:35.432Z,10.70
2023-04-28T01:40:35.484Z,10.70
2023-04-28T01:42:35.380Z,10.70
2023-04-28T01:44:38.441Z,10.70
2023-04-28T01:46:35.588Z,10.70
2023-04-28T01:48:35.660Z,10.70
2023-04-28T01:50:35.447Z,10.70
2023-04-28T01:52:35.351Z,10.70
2023-04-28T01:54:35.595Z,10.60
2023-04-28T01:56:35.768Z,10.60
2023-04-28T01:58:35.671Z,10.60
2023-04-28T02:01:46.712Z,10.60
2023-04-28T02:03:46.856Z,10.60
2023-04-28T02:05:46.629Z,10.60
2023-04-28T02:07:46.851Z,10.70
2023-04-28T02:09:46.617Z,10.70
2023-04-28T02:11:46.612Z,10.70
2023-04-28T02:13:46.925Z,10.80
2023-04-28T02:16:46.713Z,10.90
2023-04-28T02:18:46.625Z,11.00
2023-04-28T02:20:46.758Z,11.00
2023-04-28T02:22:46.666Z,11.00
2023-04-28T02:24:46.648Z,10.90
2023-04-28T02:26:46.678Z,10.90
2023-04-28T02:28:46.798Z,10.70
2023-04-28T02:30:46.834Z,10.40
2023-04-28T02:32:46.702Z,10.30
2023-04-28T02:34:46.647Z,10.30
2023-04-28T02:36:46.835Z,10.20
2023-04-28T02:38:46.753Z,10.20
2023-04-28T02:40:46.622Z,9.90
2023-04-28T02:42:46.678Z,9.80
2023-04-28T02:44:46.643Z,9.80
2023-04-28T02:46:46.719Z,9.80
2023-04-28T02:48:46.689Z,9.70
2023-04-28T02:50:46.686Z,9.60
2023-04-28T02:52:48.949Z,9.60
2023-04-28T02:54:46.705Z,9.60
2023-04-28T02:56:46.641Z,9.60
2023-04-28T02:58:46.731Z,9.60
2023-04-28T03:00:46.751Z,9.60
2023-04-28T03:02:49.084Z,9.60
2023-04-28T03:04:46.945Z,9.60
2023-04-28T03:06:46.733Z,9.60
2023-04-28T03:08:46.701Z,9.60
2023-04-28T03:10:46.846Z,9.60
2023-04-28T03:12:46.748Z,9.60
2023-04-28T03:14:46.652Z,9.60
2023-04-28T03:16:49.850Z,9.60
2023-04-28T03:18:46.713Z,9.60
2023-04-28T03:20:50.176Z,9.60
2023-04-28T03:22:46.905Z,9.60
2023-04-28T03:24:46.873Z,9.50
2023-04-28T03:26:46.905Z,9.50
2023-04-28T03:28:46.749Z,9.50
2023-04-28T03:30:46.718Z,9.50
2023-04-28T03:32:46.702Z,9.50
2023-04-28T03:34:46.656Z,9.60
2023-04-28T03:36:46.737Z,9.50
2023-04-28T03:38:46.686Z,9.50
2023-04-28T03:40:49.696Z,9.50
2023-04-28T03:42:46.721Z,9.50
2023-04-28T03:44:46.843Z,9.60
2023-04-28T03:46:46.837Z,9.60
2023-04-28T03:48:49.635Z,9.70
2023-04-28T03:50:46.780Z,9.70
2023-04-28T03:52:46.747Z,9.70
2023-04-28T03:54:46.796Z,9.60
2023-04-28T03:56:46.751Z,9.70
2023-04-28T03:58:46.749Z,9.70
2023-04-28T04:00:46.794Z,9.70
2023-04-28T04:02:47.003Z,9.70
2023-04-28T04:04:47.129Z,9.70
2023-04-28T04:06:46.915Z,9.60
2023-04-28T04:08:46.854Z,9.60
2023-04-28T04:10:46.769Z,9.60
2023-04-28T04:12:46.771Z,9.60
2023-04-28T04:14:46.961Z,9.50
2023-04-28T04:16:46.792Z,9.60
2023-04-28T04:18:46.997Z,9.60
2023-04-28T04:20:47.032Z,9.50
2023-04-28T04:22:46.849Z,9.50
2023-04-28T04:24:46.796Z,9.50
2023-04-28T04:26:46.899Z,9.50
2023-04-28T04:28:46.726Z,9.50
2023-04-28T04:30:49.672Z,9.50
2023-04-28T04:32:46.851Z,9.40
2023-04-28T04:34:47.013Z,9.40
2023-04-28T04:36:46.716Z,9.40
2023-04-28T04:38:46.838Z,9.40
2023-04-28T04:40:46.821Z,9.40
2023-04-28T04:42:49.531Z,9.30
2023-04-28T04:44:46.797Z,9.30
2023-04-28T04:46:46.928Z,9.30
2023-04-28T04:48:47.703Z,9.30
2023-04-28T04:50:49.711Z,9.20
2023-04-28T04:52:46.895Z,9.20
2023-04-28T04:54:46.775Z,9.20
2023-04-28T04:56:46.779Z,9.20
2023-04-28T04:58:46.798Z,9.20
2023-04-28T05:00:46.884Z,9.10
2023-04-28T05:02:46.981Z,9.10
2023-04-28T05:04:49.398Z,9.00
2023-04-28T05:06:46.746Z,9.00
2023-04-28T05:08:51.696Z,9.00
2023-04-28T05:10:46.787Z,9.00
2023-04-28T05:12:48.946Z,9.10
2023-04-28T05:14:46.804Z,9.10
2023-04-28T05:16:46.879Z,9.00
2023-04-28T05:18:46.747Z,9.00
2023-04-28T05:20:46.927Z,9.00
2023-04-28T05:22:46.856Z,9.00
2023-04-28T05:24:46.833Z,9.00
2023-04-28T05:26:46.882Z,9.10
2023-04-28T05:28:46.854Z,9.00
2023-04-28T05:30:46.952Z,9.00
2023-04-28T05:32:46.932Z,8.90
2023-04-28T05:34:46.837Z,8.90
2023-04-28T05:36:47.058Z,8.90
2023-04-28T05:38:46.872Z,8.90
2023-04-28T05:40:46.829Z,8.90
2023-04-28T05:42:46.905Z,8.90
2023-04-28T05:44:46.820Z,9.00
2023-04-28T05:46:46.957Z,9.00
2023-04-28T05:48:46.991Z,9.00
2023-04-28T05:50:47.160Z,9.00
2023-04-28T05:52:49.958Z,9.00
2023-04-28T05:54:46.884Z,9.10
2023-04-28T05:56:46.811Z,9.20
2023-04-28T05:58:46.894Z,9.20
2023-04-28T06:00:46.801Z,9.20
2023-04-28T06:02:47.094Z,9.20
2023-04-28T06:05:46.992Z,9.30
2023-04-28T06:06:49.738Z,9.30
2023-04-28T06:09:46.927Z,9.40
2023-04-28T06:11:46.793Z,9.40
2023-04-28T06:13:46.882Z,9.40
2023-04-28T06:15:46.899Z,9.40
2023-04-28T06:17:46.849Z,9.30
2023-04-28T06:19:46.852Z,9.40
2023-04-28T06:21:46.822Z,9.40
2023-04-28T06:23:49.903Z,9.30
2023-04-28T06:25:46.782Z,9.30
2023-04-28T06:27:46.848Z,9.20
2023-04-28T06:29:46.838Z,9.30
2023-04-28T06:31:46.908Z,9.20
2023-04-28T06:33:46.820Z,9.30
2023-04-28T06:35:46.798Z,9.30
2023-04-28T06:37:46.837Z,9.30
2023-04-28T06:39:46.865Z,9.30
2023-04-28T06:41:46.822Z,9.30
2023-04-28T06:43:47.385Z,9.30
2023-04-28T06:45:46.945Z,9.30
2023-04-28T06:47:46.900Z,9.30
2023-04-28T06:49:46.872Z,9.20
2023-04-28T06:51:46.882Z,9.30
2023-04-28T06:53:47.139Z,9.30
2023-04-28T06:55:47.245Z,9.30
2023-04-28T06:57:46.900Z,9.30
2023-04-28T06:59:46.903Z,9.30
2023-04-28T07:01:46.879Z,9.30
2023-04-28T07:03:46.916Z,9.30
2023-04-28T07:05:47.226Z,9.30
2023-04-28T07:07:46.872Z,9.30
2023-04-28T07:09:46.958Z,9.30
2023-04-28T07:11:46.994Z,9.30
2023-04-28T07:13:46.840Z,9.40
2023-04-28T07:15:46.984Z,9.50
2023-04-28T07:17:46.838Z,9.50
2023-04-28T07:19:49.205Z,9.50
2023-04-28T07:21:47.016Z,9.50
2023-04-28T07:23:46.890Z,9.50
2023-04-28T07:25:50.160Z,9.60
2023-04-28T07:27:47.011Z,9.60
2023-04-28T07:29:46.880Z,9.60
2023-04-28T07:31:47.111Z,9.60
2023-04-28T07:33:46.857Z,9.60
2023-04-28T07:35:46.907Z,9.50
2023-04-28T07:37:46.835Z,9.60
2023-04-28T07:39:46.902Z,9.60
2023-04-28T07:41:47.101Z,9.60
2023-04-28T07:43:47.032Z,9.70
2023-04-28T07:45:46.927Z,9.80
2023-04-28T07:47:46.990Z,9.80
2023-04-28T07:49:46.884Z,9.80
2023-04-28T07:51:46.889Z,9.90
2023-04-28T07:53:46.965Z,9.90
2023-04-28T07:55:46.855Z,10.00
2023-04-28T07:57:46.897Z,10.00
2023-04-28T07:59:46.959Z,10.00
2023-04-28T08:01:47.054Z,10.00
2023-04-28T08:03:46.974Z,10.00
2023-04-28T08:05:46.963Z,10.00
2023-04-28T08:07:47.130Z,10.10
2023-04-28T08:11:46.914Z,10.20
2023-04-28T08:13:47.016Z,10.20
2023-04-28T08:17:46.896Z,10.20
2023-04-28T08:21:47.151Z,10.30
2023-04-28T08:23:46.944Z,10.30
2023-04-28T08:27:49.973Z,10.30
2023-04-28T08:31:47.170Z,10.30
2023-04-28T08:33:46.976Z,10.40
2023-04-28T08:38:21.161Z,10.40
2023-04-28T08:40:20.121Z,10.40
2023-04-28T08:42:20.104Z,10.30
2023-04-28T08:44:20.173Z,10.30
2023-04-28T08:46:20.100Z,10.30
2023-04-28T08:48:20.295Z,10.50
2023-04-28T08:50:20.212Z,10.50
2023-04-28T08:52:20.067Z,10.60
2023-04-28T08:54:26.610Z,10.60
2023-04-28T08:56:20.071Z,10.60
2023-04-28T08:58:22.885Z,10.60
2023-04-28T09:00:20.083Z,10.60
2023-04-28T09:02:20.363Z,10.60
2023-04-28T09:04:20.817Z,10.60
2023-04-28T09:06:20.091Z,10.60
2023-04-28T09:08:20.142Z,10.70
2023-04-28T09:10:20.283Z,10.70
2023-04-28T09:12:20.079Z,10.80
2023-04-28T09:14:20.525Z,10.80
2023-04-28T09:16:20.141Z,10.80
2023-04-28T09:18:20.212Z,10.90
2023-04-28T09:20:20.145Z,11.00
2023-04-28T09:22:26.756Z,11.00
2023-04-28T09:24:20.065Z,11.00
2023-04-28T09:26:20.073Z,11.00
2023-04-28T09:28:20.107Z,11.20
2023-04-28T09:30:20.182Z,11.40
2023-04-28T09:32:20.227Z,11.60
2023-04-28T09:34:20.232Z,11.60
2023-04-28T09:36:20.093Z,11.70
2023-04-28T09:38:20.112Z,12.00
2023-04-28T09:40:20.478Z,12.10
2023-04-28T09:42:20.159Z,12.10
2023-04-28T09:44:20.149Z,12.20
2023-04-28T09:46:20.139Z,12.10
2023-04-28T09:48:20.370Z,12.00
2023-04-28T09:50:20.117Z,12.00
2023-04-28T09:52:20.098Z,12.00
2023-04-28T09:54:20.161Z,11.90
2023-04-28T09:56:20.124Z,11.90
2023-04-28T09:58:22.757Z,11.80
2023-04-28T10:00:27.026Z,11.90
2023-04-28T10:02:42.021Z,11.90
2023-04-28T10:04:20.291Z,12.00
2023-04-28T10:06:20.265Z,12.00
2023-04-28T10:08:20.199Z,12.30
2023-04-28T10:10:20.249Z,12.40
2023-04-28T10:12:20.148Z,12.40
2023-04-28T10:14:20.127Z,12.50
2023-04-28T10:16:20.159Z,12.70
2023-04-28T10:18:20.193Z,12.60
2023-04-28T10:20:20.125Z,12.60
2023-04-28T10:22:20.189Z,12.70
2023-04-28T10:24:20.253Z,12.80
2023-04-28T10:26:20.925Z,13.00
2023-04-28T10:28:20.218Z,13.10
2023-04-28T10:30:27.258Z,13.10
2023-04-28T10:32:20.271Z,13.10
2023-04-28T10:34:20.206Z,13.20
2023-04-28T10:36:29.972Z,13.20
2023-04-28T10:38:20.156Z,13.20
2023-04-28T10:40:20.147Z,13.20
2023-04-28T10:42:20.186Z,13.20
2023-04-28T10:44:20.179Z,13.10
2023-04-28T10:46:20.302Z,13.10
2023-04-28T10:48:20.225Z,13.10
2023-04-28T10:50:24.057Z,12.90
2023-04-28T10:52:22.440Z,12.90
2023-04-28T10:54:20.249Z,12.80
2023-04-28T10:56:20.161Z,12.80
2023-04-28T10:58:20.131Z,12.80
2023-04-28T11:00:20.214Z,12.70
2023-04-28T11:02:23.129Z,12.80
2023-04-28T11:04:20.313Z,12.80
2023-04-28T11:06:20.214Z,12.80
2023-04-28T11:08:20.606Z,12.80
2023-04-28T11:10:20.457Z,12.80
2023-04-28T11:12:20.174Z,12.90
2023-04-28T11:14:20.173Z,12.90
2023-04-28T11:16:20.237Z,12.90
2023-04-28T11:18:20.285Z,13.00
2023-04-28T11:20:20.158Z,13.00
2023-04-28T11:22:20.231Z,12.80
2023-04-28T11:24:20.149Z,12.80
2023-04-28T11:26:20.375Z,12.80
2023-04-28T11:28:20.165Z,12.80
2023-04-28T11:30:20.217Z,12.70
2023-04-28T11:32:20.163Z,12.70
2023-04-28T11:34:20.396Z,12.60
2023-04-28T11:36:20.298Z,12.60
2023-04-28T11:38:20.150Z,12.70
2023-04-28T11:40:20.288Z,12.80
2023-04-28T11:42:20.496Z,13.10
2023-04-28T11:44:20.494Z,13.10
2023-04-28T11:46:20.439Z,13.20
2023-04-28T11:48:20.324Z,13.50
2023-04-28T11:50:20.720Z,13.50
2023-04-28T11:52:25.093Z,13.60
2023-04-28T11:54:20.298Z,13.60
2023-04-28T11:56:20.219Z,13.50
2023-04-28T11:58:20.264Z,13.40
2023-04-28T12:00:20.368Z,13.20
2023-04-28T12:02:20.404Z,13.20
2023-04-28T12:04:23.788Z,13.20
2023-04-28T12:06:20.238Z,13.20
2023-04-28T12:09:20.317Z,13.20
2023-04-28T12:11:20.997Z,13.20
2023-04-28T12:13:20.298Z,13.40
2023-04-28T12:15:26.010Z,13.50
2023-04-28T12:17:20.272Z,13.50
2023-04-28T12:19:20.319Z,13.70
2023-04-28T12:21:20.326Z,13.70
2023-04-28T12:23:20.457Z,13.90
2023-04-28T12:25:20.545Z,14.00
2023-04-28T12:27:20.289Z,14.00
2023-04-28T12:29:20.584Z,14.00
2023-04-28T12:31:20.343Z,14.00
2023-04-28T12:33:20.226Z,14.20
2023-04-28T12:35:23.239Z,14.30
2023-04-28T12:37:20.363Z,14.30
2023-04-28T12:39:20.299Z,14.30
2023-04-28T12:41:20.241Z,14.40
2023-04-28T12:43:21.267Z,14.40
2023-04-28T12:45:23.396Z,14.40
2023-04-28T12:47:23.330Z,14.20
2023-04-28T12:49:20.782Z,14.20
2023-04-28T12:51:20.208Z,14.20
2023-04-28T12:53:20.333Z,14.20
2023-04-28T12:55:20.286Z,14.20
2023-04-28T12:57:20.266Z,14.10
2023-04-28T12:59:20.267Z,14.00
2023-04-28T13:01:20.249Z,14.00
2023-04-28T13:03:20.466Z,14.00
2023-04-28T13:05:20.341Z,14.00
2023-04-28T13:07:20.375Z,14.00
2023-04-28T13:09:22.992Z,14.00
2023-04-28T13:11:23.120Z,13.90
2023-04-28T13:13:20.288Z,13.90
2023-04-28T13:15:23.148Z,13.90
2023-04-28T13:17:20.253Z,13.70
2023-04-28T13:19:20.268Z,13.40
2023-04-28T13:21:20.279Z,13.30
2023-04-28T13:23:23.165Z,13.30
2023-04-28T13:25:20.360Z,13.20
2023-04-28T13:27:20.352Z,13.10
2023-04-28T13:29:20.375Z,13.10
2023-04-28T13:31:20.294Z,13.10
2023-04-28T13:33:20.282Z,13.10
2023-04-28T13:35:20.340Z,13.00
2023-04-28T13:37:23.642Z,13.00
2023-04-28T13:39:20.443Z,13.00
2023-04-28T13:41:20.582Z,13.00
2023-04-28T13:43:20.345Z,13.00
2023-04-28T13:45:22.024Z,12.90
2023-04-28T13:47:20.259Z,12.90
2023-04-28T13:49:20.325Z,13.00
2023-04-28T13:51:20.317Z,13.00
2023-04-28T13:53:20.324Z,13.10
2023-04-28T13:55:20.340Z,13.20
2023-04-28T13:57:20.318Z,13.20
2023-04-28T13:59:20.295Z,13.20
2023-04-28T14:01:20.383Z,13.20
2023-04-28T14:03:20.386Z,13.40
2023-04-28T14:05:20.326Z,13.40
2023-04-28T14:07:20.257Z,13.20
2023-04-28T14:09:20.343Z,13.20
2023-04-28T14:11:20.317Z,13.20
2023-04-28T14:13:20.289Z,13.20
2023-04-28T14:15:20.305Z,13.20
2023-04-28T14:17:20.300Z,13.20
2023-04-28T14:19:20.371Z,13.20
2023-04-28T14:21:20.399Z,13.30
2023-04-28T14:23:20.413Z,13.30
2023-04-28T14:25:20.354Z,13.30
2023-04-28T14:27:20.376Z,13.40
2023-04-28T14:29:22.424Z,13.40
2023-04-28T14:33:20.367Z,13.20
2023-04-28T14:35:20.367Z,13.30
2023-04-28T14:37:20.471Z,13.30
2023-04-28T14:39:25.233Z,13.30
2023-04-28T14:43:20.308Z,13.30
2023-04-28T14:47:32.530Z,13.20
2023-04-28T14:49:31.961Z,13.20
2023-04-28T14:51:32.084Z,13.20
2023-04-28T14:53:32.001Z,13.40
2023-04-28T14:55:34.810Z,13.70
2023-04-28T14:57:32.015Z,13.70
2023-04-28T14:59:32.049Z,13.60
2023-04-28T15:01:32.179Z,13.70
2023-04-28T15:03:34.689Z,13.70
2023-04-28T15:05:32.016Z,13.70
2023-04-28T15:07:32.091Z,13.70
2023-04-28T15:09:31.928Z,13.70
2023-04-28T15:11:34.939Z,13.70
2023-04-28T15:13:31.996Z,13.90
2023-04-28T15:15:32.053Z,14.00
2023-04-28T15:17:31.997Z,14.00
2023-04-28T15:19:31.931Z,14.00
2023-04-28T15:21:31.904Z,14.00
2023-04-28T15:23:31.926Z,13.90
2023-04-28T15:25:32.049Z,13.90
2023-04-28T15:27:31.940Z,14.00
2023-04-28T15:29:32.031Z,13.90
2023-04-28T15:31:32.053Z,13.90
2023-04-28T15:33:31.991Z,13.80
2023-04-28T15:35:31.971Z,13.80
2023-04-28T15:37:31.922Z,13.70
2023-04-28T15:39:32.042Z,13.70
2023-04-28T15:41:32.033Z,13.70
2023-04-28T15:43:31.925Z,13.60
2023-04-28T15:45:33.937Z,13.60
2023-04-28T15:47:32.003Z,13.60
2023-04-28T15:49:35.395Z,13.60
2023-04-28T15:51:31.931Z,13.60
2023-04-28T15:53:32.025Z,13.60
2023-04-28T15:55:32.008Z,13.50
2023-04-28T15:57:31.941Z,13.50
2023-04-28T15:59:32.006Z,13.60
2023-04-28T16:01:32.213Z,13.60
2023-04-28T16:03:32.179Z,13.60
2023-04-28T16:05:32.010Z,13.60
2023-04-28T16:07:31.954Z,13.60
2023-04-28T16:09:31.954Z,13.60
2023-04-28T16:11:32.196Z,13.60
2023-04-28T16:13:34.847Z,13.40
2023-04-28T16:15:32.122Z,13.40
2023-04-28T16:17:32.024Z,13.40
2023-04-28T16:19:32.088Z,13.40
2023-04-28T16:21:32.054Z,13.40
2023-04-28T16:23:31.985Z,13.50
2023-04-28T16:25:38.044Z,13.50
2023-04-28T16:27:32.119Z,13.50
2023-04-28T16:29:32.011Z,13.50
2023-04-28T16:31:32.086Z,13.50
2023-04-28T16:33:32.047Z,13.40
2023-04-28T16:35:32.037Z,13.40
2023-04-28T16:37:32.005Z,13.30
2023-04-28T16:39:32.120Z,13.30
2023-04-28T16:41:32.024Z,13.30
2023-04-28T16:43:32.038Z,13.30
2023-04-28T16:46:32.251Z,13.30
2023-04-28T16:48:32.047Z,13.20
2023-04-28T16:50:32.151Z,13.20
2023-04-28T16:52:32.040Z,13.20
2023-04-28T16:54:32.011Z,13.20
2023-04-28T16:56:32.029Z,13.00
2023-04-28T16:58:31.994Z,13.00
2023-04-28T17:00:32.075Z,12.90
2023-04-28T17:02:32.080Z,13.00
2023-04-28T17:04:32.351Z,13.00
2023-04-28T17:06:31.995Z,13.00
2023-04-28T17:08:32.160Z,13.00
2023-04-28T17:10:32.088Z,13.00
2023-04-28T17:12:35.440Z,13.00
2023-04-28T17:14:32.082Z,13.00
2023-04-28T17:16:33.692Z,13.00
2023-04-28T17:18:35.293Z,12.90
2023-04-28T17:20:32.017Z,12.90
2023-04-28T17:22:32.015Z,12.90
2023-04-28T17:24:32.137Z,12.80
2023-04-28T17:26:32.032Z,11.60
2023-04-28T17:28:32.032Z,11.00
2023-04-28T17:30:32.055Z,10.80
2023-04-28T17:32:32.524Z,10.80
2023-04-28T17:34:32.582Z,10.80
2023-04-28T17:36:31.984Z,10.60
2023-04-28T17:38:34.299Z,10.60
2023-04-28T17:40:32.541Z,10.50
2023-04-28T17:42:32.532Z,10.50
2023-04-28T17:44:32.413Z,10.50
2023-04-28T17:46:35.890Z,10.40
2023-04-28T17:48:33.658Z,10.50
2023-04-28T17:50:32.416Z,10.50
2023-04-28T17:52:32.881Z,10.60
2023-04-28T17:54:32.664Z,10.50
2023-04-28T17:56:32.692Z,10.50
2023-04-28T17:58:32.517Z,10.60
2023-04-28T18:00:32.508Z,10.60
2023-04-28T18:02:32.495Z,10.60
2023-04-28T18:04:33.133Z,10.60
2023-04-28T18:06:32.451Z,10.60
2023-04-28T18:08:33.874Z,10.70
2023-04-28T18:10:32.476Z,10.70
2023-04-28T18:12:32.947Z,10.80
2023-04-28T18:14:32.875Z,10.80
2023-04-28T18:16:33.021Z,10.80
2023-04-28T18:18:35.506Z,10.80
2023-04-28T18:20:32.128Z,10.80
2023-04-28T18:22:32.145Z,10.80
2023-04-28T18:24:32.074Z,10.80
2023-04-28T18:26:32.092Z,11.00
2023-04-28T18:28:32.089Z,11.00
2023-04-28T18:30:36.911Z,10.90
2023-04-28T18:32:32.145Z,10.90
2023-04-28T18:34:32.037Z,10.90
2023-04-28T18:36:32.042Z,11.00
2023-04-28T18:38:32.115Z,11.00
2023-04-28T18:40:32.097Z,11.00
2023-04-28T18:42:32.185Z,10.90
2023-04-28T18:44:32.157Z,10.90
2023-04-28T18:46:32.125Z,10.80
2023-04-28T18:48:35.083Z,10.70
2023-04-28T18:50:32.051Z,10.70
2023-04-28T18:52:35.304Z,10.70
2023-04-28T18:54:32.446Z,10.70
2023-04-28T18:56:32.111Z,10.70
2023-04-28T18:58:32.144Z,10.70
2023-04-28T19:00:37.288Z,10.60
2023-04-28T19:02:32.193Z,10.60
2023-04-28T19:04:32.148Z,10.60
2023-04-28T19:06:32.189Z,10.60
2023-04-28T19:08:32.394Z,10.60
2023-04-28T19:10:32.161Z,10.60
2023-04-28T19:12:32.102Z,10.70
2023-04-28T19:14:32.067Z,10.70
2023-04-28T19:16:32.106Z,10.70
2023-04-28T19:18:32.153Z,10.80
2023-04-28T19:20:32.169Z,10.80
2023-04-28T19:22:32.086Z,10.80
2023-04-28T19:24:32.101Z,10.80
2023-04-28T19:26:32.121Z,10.80
2023-04-28T19:28:32.128Z,10.90
2023-04-28T19:30:32.238Z,10.90
2023-04-28T19:32:32.161Z,10.90
2023-04-28T19:34:32.141Z,10.90
2023-04-28T19:36:32.080Z,10.90
2023-04-28T19:38:32.136Z,10.90
2023-04-28T19:40:32.120Z,10.90
2023-04-28T19:42:32.124Z,11.00
2023-04-28T19:44:32.123Z,11.00
2023-04-28T19:46:32.333Z,11.10
2023-04-28T19:48:32.198Z,11.20
2023-04-28T19:50:36.281Z,11.20
2023-04-28T19:52:32.220Z,11.20
2023-04-28T19:54:32.075Z,11.10
2023-04-28T19:56:32.223Z,11.20
2023-04-28T19:58:32.150Z,11.20
2023-04-28T20:00:33.054Z,11.60
2023-04-28T20:02:32.291Z,11.60
2023-04-28T20:04:32.515Z,11.60
2023-04-28T20:06:32.130Z,11.60
2023-04-28T20:08:32.238Z,11.50
2023-04-28T20:10:35.238Z,11.50
2023-04-28T20:12:35.576Z,11.50
2023-04-28T20:14:32.235Z,11.60
2023-04-28T20:16:32.207Z,11.60
2023-04-28T20:18:32.190Z,11.70
2023-04-28T20:20:32.175Z,11.60
2023-04-28T20:22:32.301Z,11.60
2023-04-28T20:24:32.112Z,11.60
2023-04-28T20:26:32.228Z,11.60
2023-04-28T20:28:32.174Z,11.80
2023-04-28T20:30:32.289Z,11.80
2023-04-28T20:32:32.305Z,12.00
2023-04-28T20:34:32.254Z,12.10
2023-04-28T20:36:32.089Z,12.20
2023-04-28T20:38:32.223Z,12.40
2023-04-28T20:41:32.665Z,12.30
2023-04-28T20:43:32.602Z,12.40
2023-04-28T20:45:32.555Z,12.40
2023-04-28T20:47:32.267Z,12.30
2023-04-28T20:49:32.192Z,12.40
2023-04-28T20:51:32.173Z,12.40
2023-04-28T20:53:33.015Z,12.40
2023-04-28T20:55:32.218Z,12.30
2023-04-28T20:57:33.329Z,12.30
2023-04-28T20:59:33.148Z,12.20
2023-04-28T21:00:47.875Z,12.20
2023-04-28T21:02:48.085Z,12.20
2023-04-28T21:04:47.932Z,12.20
2023-04-28T21:06:47.981Z,12.20
2023-04-28T21:08:47.811Z,12.20
2023-04-28T21:10:47.790Z,12.30
2023-04-28T21:12:48.041Z,12.30
2023-04-28T21:14:47.833Z,12.30
2023-04-28T21:16:47.859Z,12.20
2023-04-28T21:18:47.841Z,12.10
2023-04-28T21:20:47.898Z,12.20
2023-04-28T21:22:52.764Z,12.20
2023-04-28T21:24:47.871Z,12.10
2023-04-28T21:26:47.908Z,12.00
2023-04-28T21:28:48.041Z,12.00
2023-04-28T21:30:47.870Z,12.00
2023-04-28T21:32:47.888Z,12.00
2023-04-28T21:34:47.916Z,11.80
2023-04-28T21:36:47.795Z,11.80
2023-04-28T21:38:47.806Z,11.60
2023-04-28T21:40:47.832Z,11.60
2023-04-28T21:42:48.126Z,11.60
2023-04-28T21:45:47.853Z,11.60
2023-04-28T21:47:47.931Z,11.60
2023-04-28T21:49:48.028Z,11.70
2023-04-28T21:51:47.928Z,11.80
2023-04-28T21:53:50.881Z,11.80
2023-04-28T21:55:47.818Z,11.80
2023-04-28T21:57:47.801Z,11.80
2023-04-28T21:59:47.962Z,11.80
2023-04-28T22:01:47.966Z,11.80
2023-04-28T22:03:48.106Z,11.80
2023-04-28T22:05:48.020Z,11.80
2023-04-28T22:07:47.881Z,11.80
2023-04-28T22:09:47.943Z,11.70
2023-04-28T22:11:48.018Z,11.80
2023-04-28T22:13:47.948Z,11.80
2023-04-28T22:15:48.015Z,11.80
2023-04-28T22:17:47.839Z,11.80
2023-04-28T22:19:47.874Z,11.70
2023-04-28T22:21:52.307Z,11.60
2023-04-28T22:23:47.837Z,11.60
2023-04-28T22:25:48.079Z,11.60
2023-04-28T22:27:47.840Z,11.60
2023-04-28T22:29:47.933Z,11.50
2023-04-28T22:31:47.812Z,11.50
2023-04-28T22:33:47.810Z,11.50
2023-04-28T22:35:47.885Z,11.50
2023-04-28T22:37:47.884Z,11.40
2023-04-28T22:39:47.869Z,11.40
2023-04-28T22:41:48.125Z,11.40
2023-04-28T22:43:47.846Z,11.40
2023-04-28T22:45:47.882Z,11.50
2023-04-28T22:47:47.921Z,11.60
2023-04-28T22:49:47.933Z,11.60
2023-04-28T22:51:47.865Z,11.60
2023-04-28T22:53:47.823Z,11.70
2023-04-28T22:55:50.862Z,11.70
2023-04-28T22:57:48.953Z,11.70
2023-04-28T22:59:47.896Z,11.70
2023-04-28T23:01:47.919Z,11.70
2023-04-28T23:03:48.096Z,11.70
2023-04-28T23:05:47.851Z,11.60
2023-04-28T23:07:47.931Z,11.60
2023-04-28T23:09:48.017Z,11.60
2023-04-28T23:11:47.876Z,11.60
2023-04-28T23:13:47.893Z,11.60
2023-04-28T23:15:47.922Z,11.60
2023-04-28T23:17:47.893Z,11.60
2023-04-28T23:19:47.839Z,11.60
2023-04-28T23:21:47.840Z,11.50
2023-04-28T23:23:47.888Z,11.40
2023-04-28T23:25:47.863Z,11.40
2023-04-28T23:27:47.953Z,11.40
2023-04-28T23:29:47.996Z,11.30
2023-04-28T23:31:47.842Z,11.30
2023-04-28T23:33:47.834Z,11.20
2023-04-28T23:35:47.892Z,11.30
2023-04-28T23:37:47.912Z,11.30
2023-04-28T23:39:48.101Z,11.30
2023-04-28T23:41:47.923Z,11.40
2023-04-28T23:43:47.978Z,11.40
2023-04-28T23:45:51.621Z,11.50
2023-04-28T23:47:47.914Z,11.50
2023-04-28T23:49:48.080Z,11.50
2023-04-28T23:51:47.911Z,11.50
2023-04-28T23:53:47.908Z,11.50
2023-04-28T23:55:47.961Z,11.50
2023-04-28T23:57:50.852Z,11.60
2023-04-28T23:59:47.838Z,11.60
